sensor_id;sensor_type;location;lat;lon;timestamp;P1;durP1;ratioP1;P2;durP2;ratioP2
68870;SDS011;55906;52.278;6.808;2023-04-25T00:00:10;11.35;;;6.35;;
68870;SDS011;55906;52.278;6.808;2023-04-25T00:02:38;18.95;;;6.18;;
68870;SDS011;55906;52.278;6.808;2023-04-25T00:05:06;13.88;;;5.68;;
68870;SDS011;55906;52.278;6.808;2023-04-25T00:07:33;13.97;;;5.23;;
68870;SDS011;55906;52.278;6.808;2023-04-25T00:10:00;16.55;;;5.57;;
68870;SDS011;55906;52.278;6.808;2023-04-25T00:12:27;13.60;;;5.55;;
68870;SDS011;55906;52.278;6.808;2023-04-25T00:14:54;16.10;;;5.43;;
68870;SDS011;55906;52.278;6.808;2023-04-25T00:17:22;17.85;;;6.35;;
68870;SDS011;55906;52.278;6.808;2023-04-25T00:19:49;18.77;;;6.77;;
68870;SDS011;55906;52.278;6.808;2023-04-25T00:22:17;18.77;;;6.40;;
68870;SDS011;55906;52.278;6.808;2023-04-25T00:24:44;14.25;;;6.35;;
68870;SDS011;55906;52.278;6.808;2023-04-25T00:27:11;13.60;;;5.63;;
68870;SDS011;55906;52.278;6.808;2023-04-25T00:29:37;12.20;;;5.38;;
68870;SDS011;55906;52.278;6.808;2023-04-25T00:32:04;23.37;;;6.73;;
68870;SDS011;55906;52.278;6.808;2023-04-25T00:34:31;13.00;;;5.72;;
68870;SDS011;55906;52.278;6.808;2023-04-25T00:36:57;14.25;;;5.78;;
68870;SDS011;55906;52.278;6.808;2023-04-25T00:39:27;13.88;;;5.05;;
68870;SDS011;55906;52.278;6.808;2023-04-25T00:41:54;12.45;;;5.63;;
68870;SDS011;55906;52.278;6.808;2023-04-25T00:44:21;11.93;;;5.65;;
68870;SDS011;55906;52.278;6.808;2023-04-25T00:46:48;21.38;;;6.13;;
68870;SDS011;55906;52.278;6.808;2023-04-25T00:49:15;13.52;;;5.30;;
68870;SDS011;55906;52.278;6.808;2023-04-25T00:51:42;22.38;;;5.60;;
68870;SDS011;55906;52.278;6.808;2023-04-25T00:54:10;14.07;;;5.33;;
68870;SDS011;55906;52.278;6.808;2023-04-25T00:56:38;18.23;;;5.28;;
68870;SDS011;55906;52.278;6.808;2023-04-25T00:59:05;16.70;;;5.63;;
68870;SDS011;55906;52.278;6.808;2023-04-25T01:01:32;15.18;;;5.38;;
68870;SDS011;55906;52.278;6.808;2023-04-25T01:04:00;14.77;;;5.63;;
68870;SDS011;55906;52.278;6.808;2023-04-25T01:06:27;18.87;;;5.43;;
68870;SDS011;55906;52.278;6.808;2023-04-25T01:08:54;13.30;;;5.90;;
68870;SDS011;55906;52.278;6.808;2023-04-25T01:11:20;9.60;;;4.97;;
68870;SDS011;55906;52.278;6.808;2023-04-25T01:13:48;16.02;;;4.90;;
68870;SDS011;55906;52.278;6.808;2023-04-25T01:16:15;15.47;;;5.77;;
68870;SDS011;55906;52.278;6.808;2023-04-25T01:18:42;14.07;;;5.35;;
68870;SDS011;55906;52.278;6.808;2023-04-25T01:21:11;9.73;;;4.90;;
68870;SDS011;55906;52.278;6.808;2023-04-25T01:23:39;14.35;;;5.32;;
68870;SDS011;55906;52.278;6.808;2023-04-25T01:26:06;16.70;;;5.53;;
68870;SDS011;55906;52.278;6.808;2023-04-25T01:28:34;18.52;;;5.22;;
68870;SDS011;55906;52.278;6.808;2023-04-25T01:31:01;20.45;;;5.82;;
68870;SDS011;55906;52.278;6.808;2023-04-25T01:33:28;17.27;;;5.55;;
68870;SDS011;55906;52.278;6.808;2023-04-25T01:35:55;11.73;;;5.32;;
68870;SDS011;55906;52.278;6.808;2023-04-25T01:38:23;18.37;;;5.70;;
68870;SDS011;55906;52.278;6.808;2023-04-25T01:40:50;12.77;;;5.55;;
68870;SDS011;55906;52.278;6.808;2023-04-25T01:43:17;15.45;;;6.07;;
68870;SDS011;55906;52.278;6.808;2023-04-25T01:45:44;14.48;;;5.75;;
68870;SDS011;55906;52.278;6.808;2023-04-25T01:48:11;10.67;;;5.20;;
68870;SDS011;55906;52.278;6.808;2023-04-25T01:50:39;9.38;;;4.90;;
68870;SDS011;55906;52.278;6.808;2023-04-25T01:53:06;15.60;;;5.70;;
68870;SDS011;55906;52.278;6.808;2023-04-25T01:55:37;12.02;;;5.90;;
68870;SDS011;55906;52.278;6.808;2023-04-25T01:58:04;10.40;;;5.13;;
68870;SDS011;55906;52.278;6.808;2023-04-25T02:00:34;12.23;;;6.47;;
68870;SDS011;55906;52.278;6.808;2023-04-25T02:03:03;10.75;;;4.95;;
68870;SDS011;55906;52.278;6.808;2023-04-25T02:05:33;15.93;;;5.70;;
68870;SDS011;55906;52.278;6.808;2023-04-25T02:08:01;13.90;;;6.13;;
68870;SDS011;55906;52.278;6.808;2023-04-25T02:10:28;11.27;;;5.73;;
68870;SDS011;55906;52.278;6.808;2023-04-25T02:12:56;12.85;;;6.13;;
68870;SDS011;55906;52.278;6.808;2023-04-25T02:15:23;15.48;;;5.82;;
68870;SDS011;55906;52.278;6.808;2023-04-25T02:17:49;14.15;;;5.53;;
68870;SDS011;55906;52.278;6.808;2023-04-25T02:20:17;11.95;;;4.72;;
68870;SDS011;55906;52.278;6.808;2023-04-25T02:22:44;14.30;;;6.63;;
68870;SDS011;55906;52.278;6.808;2023-04-25T02:25:11;15.60;;;5.72;;
68870;SDS011;55906;52.278;6.808;2023-04-25T02:27:38;12.32;;;5.43;;
68870;SDS011;55906;52.278;6.808;2023-04-25T02:30:07;10.25;;;5.68;;
68870;SDS011;55906;52.278;6.808;2023-04-25T02:32:34;14.20;;;4.90;;
68870;SDS011;55906;52.278;6.808;2023-04-25T02:35:01;12.25;;;5.40;;
68870;SDS011;55906;52.278;6.808;2023-04-25T02:37:28;13.68;;;5.88;;
68870;SDS011;55906;52.278;6.808;2023-04-25T02:39:55;15.52;;;6.05;;
68870;SDS011;55906;52.278;6.808;2023-04-25T02:42:22;14.67;;;6.57;;
68870;SDS011;55906;52.278;6.808;2023-04-25T02:44:48;11.85;;;5.50;;
68870;SDS011;55906;52.278;6.808;2023-04-25T02:47:16;15.23;;;6.03;;
68870;SDS011;55906;52.278;6.808;2023-04-25T02:49:43;15.77;;;5.82;;
68870;SDS011;55906;52.278;6.808;2023-04-25T02:52:10;17.35;;;5.57;;
68870;SDS011;55906;52.278;6.808;2023-04-25T02:54:37;16.67;;;5.83;;
68870;SDS011;55906;52.278;6.808;2023-04-25T02:57:04;14.55;;;5.30;;
68870;SDS011;55906;52.278;6.808;2023-04-25T02:59:30;13.77;;;5.97;;
68870;SDS011;55906;52.278;6.808;2023-04-25T03:01:57;20.15;;;6.15;;
68870;SDS011;55906;52.278;6.808;2023-04-25T03:04:25;9.67;;;5.90;;
68870;SDS011;55906;52.278;6.808;2023-04-25T03:06:52;13.25;;;5.22;;
68870;SDS011;55906;52.278;6.808;2023-04-25T03:09:19;11.18;;;5.80;;
68870;SDS011;55906;52.278;6.808;2023-04-25T03:11:46;17.45;;;5.93;;
68870;SDS011;55906;52.278;6.808;2023-04-25T03:14:12;13.80;;;5.85;;
68870;SDS011;55906;52.278;6.808;2023-04-25T03:16:40;13.00;;;5.10;;
68870;SDS011;55906;52.278;6.808;2023-04-25T03:19:06;11.38;;;5.25;;
68870;SDS011;55906;52.278;6.808;2023-04-25T03:21:35;9.50;;;5.03;;
68870;SDS011;55906;52.278;6.808;2023-04-25T03:24:02;11.07;;;4.90;;
68870;SDS011;55906;52.278;6.808;2023-04-25T03:26:30;10.80;;;5.10;;
68870;SDS011;55906;52.278;6.808;2023-04-25T03:28:57;8.45;;;5.60;;
68870;SDS011;55906;52.278;6.808;2023-04-25T03:31:24;8.73;;;4.47;;
68870;SDS011;55906;52.278;6.808;2023-04-25T03:33:50;10.50;;;5.60;;
68870;SDS011;55906;52.278;6.808;2023-04-25T03:36:17;10.85;;;5.50;;
68870;SDS011;55906;52.278;6.808;2023-04-25T03:38:45;10.07;;;4.85;;
68870;SDS011;55906;52.278;6.808;2023-04-25T03:41:13;11.75;;;4.63;;
68870;SDS011;55906;52.278;6.808;2023-04-25T03:43:39;7.93;;;4.70;;
68870;SDS011;55906;52.278;6.808;2023-04-25T03:46:06;9.70;;;4.43;;
68870;SDS011;55906;52.278;6.808;2023-04-25T03:48:33;12.10;;;4.32;;
68870;SDS011;55906;52.278;6.808;2023-04-25T03:50:59;12.35;;;5.07;;
68870;SDS011;55906;52.278;6.808;2023-04-25T03:53:26;11.60;;;4.93;;
68870;SDS011;55906;52.278;6.808;2023-04-25T03:55:54;12.03;;;5.47;;
68870;SDS011;55906;52.278;6.808;2023-04-25T03:58:21;11.25;;;5.13;;
68870;SDS011;55906;52.278;6.808;2023-04-25T04:00:50;13.15;;;4.95;;
68870;SDS011;55906;52.278;6.808;2023-04-25T04:03:17;10.10;;;5.03;;
68870;SDS011;55906;52.278;6.808;2023-04-25T04:05:46;14.23;;;5.17;;
68870;SDS011;55906;52.278;6.808;2023-04-25T04:08:13;12.98;;;5.97;;
68870;SDS011;55906;52.278;6.808;2023-04-25T04:10:40;12.38;;;5.28;;
68870;SDS011;55906;52.278;6.808;2023-04-25T04:13:08;9.93;;;4.90;;
68870;SDS011;55906;52.278;6.808;2023-04-25T04:15:35;15.27;;;5.60;;
68870;SDS011;55906;52.278;6.808;2023-04-25T04:18:02;12.90;;;4.55;;
68870;SDS011;55906;52.278;6.808;2023-04-25T04:20:29;11.70;;;5.78;;
68870;SDS011;55906;52.278;6.808;2023-04-25T04:22:56;14.07;;;5.55;;
68870;SDS011;55906;52.278;6.808;2023-04-25T04:25:22;11.30;;;4.33;;
68870;SDS011;55906;52.278;6.808;2023-04-25T04:27:50;11.90;;;4.68;;
68870;SDS011;55906;52.278;6.808;2023-04-25T04:30:20;12.85;;;4.82;;
68870;SDS011;55906;52.278;6.808;2023-04-25T04:32:49;13.45;;;5.20;;
68870;SDS011;55906;52.278;6.808;2023-04-25T04:35:15;8.97;;;4.27;;
68870;SDS011;55906;52.278;6.808;2023-04-25T04:37:42;12.02;;;4.88;;
68870;SDS011;55906;52.278;6.808;2023-04-25T04:40:10;11.93;;;5.57;;
68870;SDS011;55906;52.278;6.808;2023-04-25T04:42:40;8.05;;;5.15;;
68870;SDS011;55906;52.278;6.808;2023-04-25T04:45:07;13.48;;;4.82;;
68870;SDS011;55906;52.278;6.808;2023-04-25T04:47:36;13.13;;;5.45;;
68870;SDS011;55906;52.278;6.808;2023-04-25T04:50:04;11.90;;;5.35;;
68870;SDS011;55906;52.278;6.808;2023-04-25T04:52:33;10.02;;;5.05;;
68870;SDS011;55906;52.278;6.808;2023-04-25T04:55:00;12.38;;;5.72;;
68870;SDS011;55906;52.278;6.808;2023-04-25T04:57:28;8.48;;;5.18;;
68870;SDS011;55906;52.278;6.808;2023-04-25T04:59:55;12.13;;;5.10;;
68870;SDS011;55906;52.278;6.808;2023-04-25T05:02:21;11.80;;;5.82;;
68870;SDS011;55906;52.278;6.808;2023-04-25T05:04:49;15.23;;;5.80;;
68870;SDS011;55906;52.278;6.808;2023-04-25T05:07:16;12.95;;;5.72;;
68870;SDS011;55906;52.278;6.808;2023-04-25T05:09:43;13.18;;;5.70;;
68870;SDS011;55906;52.278;6.808;2023-04-25T05:12:10;11.98;;;5.28;;
68870;SDS011;55906;52.278;6.808;2023-04-25T05:14:37;9.93;;;5.43;;
68870;SDS011;55906;52.278;6.808;2023-04-25T05:17:03;9.40;;;4.30;;
68870;SDS011;55906;52.278;6.808;2023-04-25T05:19:33;10.85;;;5.25;;
68870;SDS011;55906;52.278;6.808;2023-04-25T05:22:02;11.98;;;5.32;;
68870;SDS011;55906;52.278;6.808;2023-04-25T05:24:29;12.13;;;5.32;;
68870;SDS011;55906;52.278;6.808;2023-04-25T05:26:55;10.57;;;4.60;;
68870;SDS011;55906;52.278;6.808;2023-04-25T05:29:22;13.57;;;5.50;;
68870;SDS011;55906;52.278;6.808;2023-04-25T05:31:49;11.02;;;5.63;;
68870;SDS011;55906;52.278;6.808;2023-04-25T05:34:15;8.65;;;4.80;;
68870;SDS011;55906;52.278;6.808;2023-04-25T05:36:42;9.53;;;4.97;;
68870;SDS011;55906;52.278;6.808;2023-04-25T05:39:10;11.88;;;4.30;;
68870;SDS011;55906;52.278;6.808;2023-04-25T05:41:37;11.73;;;5.20;;
68870;SDS011;55906;52.278;6.808;2023-04-25T05:44:04;11.38;;;5.20;;
68870;SDS011;55906;52.278;6.808;2023-04-25T05:46:31;11.30;;;5.00;;
68870;SDS011;55906;52.278;6.808;2023-04-25T05:48:58;12.40;;;4.77;;
68870;SDS011;55906;52.278;6.808;2023-04-25T05:51:24;12.77;;;4.95;;
68870;SDS011;55906;52.278;6.808;2023-04-25T05:53:52;10.32;;;5.25;;
68870;SDS011;55906;52.278;6.808;2023-04-25T05:56:20;14.38;;;5.03;;
68870;SDS011;55906;52.278;6.808;2023-04-25T05:58:47;15.73;;;6.30;;
68870;SDS011;55906;52.278;6.808;2023-04-25T06:01:13;11.80;;;5.47;;
68870;SDS011;55906;52.278;6.808;2023-04-25T06:03:40;8.70;;;4.75;;
68870;SDS011;55906;52.278;6.808;2023-04-25T06:06:08;12.23;;;5.18;;
68870;SDS011;55906;52.278;6.808;2023-04-25T06:08:34;9.32;;;4.38;;
68870;SDS011;55906;52.278;6.808;2023-04-25T06:11:02;8.80;;;4.63;;
68870;SDS011;55906;52.278;6.808;2023-04-25T06:13:30;15.57;;;4.80;;
68870;SDS011;55906;52.278;6.808;2023-04-25T06:15:57;13.30;;;4.88;;
68870;SDS011;55906;52.278;6.808;2023-04-25T06:18:24;12.02;;;4.78;;
68870;SDS011;55906;52.278;6.808;2023-04-25T06:20:50;7.10;;;4.55;;
68870;SDS011;55906;52.278;6.808;2023-04-25T06:23:17;10.75;;;4.53;;
68870;SDS011;55906;52.278;6.808;2023-04-25T06:25:43;10.07;;;4.37;;
68870;SDS011;55906;52.278;6.808;2023-04-25T06:28:10;8.30;;;4.30;;
68870;SDS011;55906;52.278;6.808;2023-04-25T06:30:38;11.23;;;3.97;;
68870;SDS011;55906;52.278;6.808;2023-04-25T06:33:05;10.70;;;4.10;;
68870;SDS011;55906;52.278;6.808;2023-04-25T06:35:33;7.03;;;4.00;;
68870;SDS011;55906;52.278;6.808;2023-04-25T06:38:00;10.57;;;4.10;;
68870;SDS011;55906;52.278;6.808;2023-04-25T06:40:26;8.88;;;4.18;;
68870;SDS011;55906;52.278;6.808;2023-04-25T06:42:53;10.85;;;3.70;;
68870;SDS011;55906;52.278;6.808;2023-04-25T06:45:20;9.40;;;3.97;;
68870;SDS011;55906;52.278;6.808;2023-04-25T06:47:48;8.82;;;3.90;;
68870;SDS011;55906;52.278;6.808;2023-04-25T06:50:14;11.40;;;4.00;;
68870;SDS011;55906;52.278;6.808;2023-04-25T06:52:41;7.30;;;3.97;;
68870;SDS011;55906;52.278;6.808;2023-04-25T06:55:08;6.93;;;4.07;;
68870;SDS011;55906;52.278;6.808;2023-04-25T06:57:35;8.45;;;4.15;;
68870;SDS011;55906;52.278;6.808;2023-04-25T07:00:02;7.35;;;3.80;;
68870;SDS011;55906;52.278;6.808;2023-04-25T07:02:33;7.93;;;3.50;;
68870;SDS011;55906;52.278;6.808;2023-04-25T07:05:01;9.50;;;4.32;;
68870;SDS011;55906;52.278;6.808;2023-04-25T07:07:29;7.57;;;3.60;;
68870;SDS011;55906;52.278;6.808;2023-04-25T07:09:55;11.60;;;3.88;;
68870;SDS011;55906;52.278;6.808;2023-04-25T07:12:22;13.93;;;3.72;;
68870;SDS011;55906;52.278;6.808;2023-04-25T07:14:49;8.20;;;3.83;;
68870;SDS011;55906;52.278;6.808;2023-04-25T07:17:15;10.80;;;3.50;;
68870;SDS011;55906;52.278;6.808;2023-04-25T07:19:42;9.18;;;4.03;;
68870;SDS011;55906;52.278;6.808;2023-04-25T07:22:10;11.43;;;3.80;;
68870;SDS011;55906;52.278;6.808;2023-04-25T07:24:37;8.73;;;3.90;;
68870;SDS011;55906;52.278;6.808;2023-04-25T07:27:03;8.00;;;3.60;;
68870;SDS011;55906;52.278;6.808;2023-04-25T07:29:30;7.65;;;4.25;;
68870;SDS011;55906;52.278;6.808;2023-04-25T07:31:57;11.48;;;4.20;;
68870;SDS011;55906;52.278;6.808;2023-04-25T07:34:23;9.07;;;4.25;;
68870;SDS011;55906;52.278;6.808;2023-04-25T07:36:50;7.45;;;3.78;;
68870;SDS011;55906;52.278;6.808;2023-04-25T07:39:19;7.73;;;3.80;;
68870;SDS011;55906;52.278;6.808;2023-04-25T07:41:45;6.97;;;3.65;;
68870;SDS011;55906;52.278;6.808;2023-04-25T07:44:12;8.23;;;3.65;;
68870;SDS011;55906;52.278;6.808;2023-04-25T07:46:38;8.60;;;3.20;;
68870;SDS011;55906;52.278;6.808;2023-04-25T07:49:05;8.23;;;3.17;;
68870;SDS011;55906;52.278;6.808;2023-04-25T07:51:31;7.50;;;3.17;;
68870;SDS011;55906;52.278;6.808;2023-04-25T07:53:58;11.88;;;3.42;;
68870;SDS011;55906;52.278;6.808;2023-04-25T07:56:27;7.97;;;3.13;;
68870;SDS011;55906;52.278;6.808;2023-04-25T07:58:53;9.02;;;3.20;;
68870;SDS011;55906;52.278;6.808;2023-04-25T08:01:20;7.78;;;3.10;;
68870;SDS011;55906;52.278;6.808;2023-04-25T08:03:47;6.23;;;2.80;;
68870;SDS011;55906;52.278;6.808;2023-04-25T08:06:13;7.47;;;2.80;;
68870;SDS011;55906;52.278;6.808;2023-04-25T08:08:40;8.98;;;2.60;;
68870;SDS011;55906;52.278;6.808;2023-04-25T08:11:06;8.15;;;3.05;;
68870;SDS011;55906;52.278;6.808;2023-04-25T08:13:34;12.30;;;3.25;;
68870;SDS011;55906;52.278;6.808;2023-04-25T08:16:01;9.63;;;3.43;;
68870;SDS011;55906;52.278;6.808;2023-04-25T08:18:28;7.97;;;2.90;;
68870;SDS011;55906;52.278;6.808;2023-04-25T08:20:55;7.30;;;3.33;;
68870;SDS011;55906;52.278;6.808;2023-04-25T08:23:22;7.95;;;2.83;;
68870;SDS011;55906;52.278;6.808;2023-04-25T08:25:49;8.93;;;3.60;;
68870;SDS011;55906;52.278;6.808;2023-04-25T08:28:15;5.10;;;2.77;;
68870;SDS011;55906;52.278;6.808;2023-04-25T08:30:43;7.20;;;2.60;;
68870;SDS011;55906;52.278;6.808;2023-04-25T08:33:10;9.73;;;3.70;;
68870;SDS011;55906;52.278;6.808;2023-04-25T08:35:36;8.27;;;3.25;;
68870;SDS011;55906;52.278;6.808;2023-04-25T08:38:03;6.65;;;3.33;;
68870;SDS011;55906;52.278;6.808;2023-04-25T08:40:30;6.40;;;3.07;;
68870;SDS011;55906;52.278;6.808;2023-04-25T08:43:01;6.10;;;2.75;;
68870;SDS011;55906;52.278;6.808;2023-04-25T08:45:31;6.05;;;3.08;;
68870;SDS011;55906;52.278;6.808;2023-04-25T08:48:00;7.57;;;2.60;;
68870;SDS011;55906;52.278;6.808;2023-04-25T08:50:29;6.30;;;3.30;;
68870;SDS011;55906;52.278;6.808;2023-04-25T08:52:56;7.67;;;2.50;;
68870;SDS011;55906;52.278;6.808;2023-04-25T08:55:30;9.02;;;2.92;;
68870;SDS011;55906;52.278;6.808;2023-04-25T08:57:57;9.48;;;3.50;;
68870;SDS011;55906;52.278;6.808;2023-04-25T09:00:25;6.32;;;3.08;;
68870;SDS011;55906;52.278;6.808;2023-04-25T09:02:52;8.27;;;3.00;;
68870;SDS011;55906;52.278;6.808;2023-04-25T09:05:20;9.00;;;2.90;;
68870;SDS011;55906;52.278;6.808;2023-04-25T09:07:47;6.47;;;2.95;;
68870;SDS011;55906;52.278;6.808;2023-04-25T09:10:14;10.18;;;2.85;;
68870;SDS011;55906;52.278;6.808;2023-04-25T09:12:41;10.45;;;3.40;;
68870;SDS011;55906;52.278;6.808;2023-04-25T09:15:08;7.38;;;3.15;;
68870;SDS011;55906;52.278;6.808;2023-04-25T09:17:36;8.37;;;3.20;;
68870;SDS011;55906;52.278;6.808;2023-04-25T09:20:06;11.50;;;3.08;;
68870;SDS011;55906;52.278;6.808;2023-04-25T09:22:35;4.95;;;2.67;;
68870;SDS011;55906;52.278;6.808;2023-04-25T09:25:03;8.40;;;2.95;;
68870;SDS011;55906;52.278;6.808;2023-04-25T09:27:34;7.00;;;2.95;;
68870;SDS011;55906;52.278;6.808;2023-04-25T09:30:00;9.23;;;2.90;;
68870;SDS011;55906;52.278;6.808;2023-04-25T09:32:27;9.30;;;3.00;;
68870;SDS011;55906;52.278;6.808;2023-04-25T09:34:55;8.07;;;3.33;;
68870;SDS011;55906;52.278;6.808;2023-04-25T09:37:22;8.25;;;2.70;;
68870;SDS011;55906;52.278;6.808;2023-04-25T09:39:52;6.85;;;2.63;;
68870;SDS011;55906;52.278;6.808;2023-04-25T09:42:21;8.50;;;2.50;;
68870;SDS011;55906;52.278;6.808;2023-04-25T09:44:51;9.32;;;2.67;;
68870;SDS011;55906;52.278;6.808;2023-04-25T09:47:18;7.20;;;2.30;;
68870;SDS011;55906;52.278;6.808;2023-04-25T09:49:47;6.32;;;2.42;;
68870;SDS011;55906;52.278;6.808;2023-04-25T09:52:14;5.07;;;2.38;;
68870;SDS011;55906;52.278;6.808;2023-04-25T09:54:44;6.60;;;2.40;;
68870;SDS011;55906;52.278;6.808;2023-04-25T09:57:13;5.10;;;2.65;;
68870;SDS011;55906;52.278;6.808;2023-04-25T09:59:44;5.07;;;2.75;;
68870;SDS011;55906;52.278;6.808;2023-04-25T10:02:12;3.90;;;2.65;;
68870;SDS011;55906;52.278;6.808;2023-04-25T10:04:40;7.72;;;3.10;;
68870;SDS011;55906;52.278;6.808;2023-04-25T10:07:08;4.63;;;2.50;;
68870;SDS011;55906;52.278;6.808;2023-04-25T10:09:36;5.82;;;2.55;;
68870;SDS011;55906;52.278;6.808;2023-04-25T10:12:04;5.50;;;2.45;;
68870;SDS011;55906;52.278;6.808;2023-04-25T10:14:34;4.75;;;2.35;;
68870;SDS011;55906;52.278;6.808;2023-04-25T10:17:01;8.75;;;2.65;;
68870;SDS011;55906;52.278;6.808;2023-04-25T10:19:28;8.00;;;2.53;;
68870;SDS011;55906;52.278;6.808;2023-04-25T10:21:58;5.38;;;2.25;;
68870;SDS011;55906;52.278;6.808;2023-04-25T10:24:30;6.53;;;2.47;;
68870;SDS011;55906;52.278;6.808;2023-04-25T10:26:57;5.13;;;2.20;;
68870;SDS011;55906;52.278;6.808;2023-04-25T10:29:25;8.35;;;2.30;;
68870;SDS011;55906;52.278;6.808;2023-04-25T10:31:54;6.73;;;2.27;;
68870;SDS011;55906;52.278;6.808;2023-04-25T10:34:23;7.07;;;2.60;;
68870;SDS011;55906;52.278;6.808;2023-04-25T10:37:03;6.95;;;2.40;;
68870;SDS011;55906;52.278;6.808;2023-04-25T10:39:30;6.10;;;2.20;;
68870;SDS011;55906;52.278;6.808;2023-04-25T10:41:59;5.47;;;2.10;;
68870;SDS011;55906;52.278;6.808;2023-04-25T10:44:28;4.33;;;2.20;;
68870;SDS011;55906;52.278;6.808;2023-04-25T10:46:59;6.60;;;2.20;;
68870;SDS011;55906;52.278;6.808;2023-04-25T10:49:28;7.40;;;2.20;;
68870;SDS011;55906;52.278;6.808;2023-04-25T10:52:12;7.05;;;2.22;;
68870;SDS011;55906;52.278;6.808;2023-04-25T10:54:51;7.63;;;2.00;;
68870;SDS011;55906;52.278;6.808;2023-04-25T10:57:28;7.33;;;2.40;;
68870;SDS011;55906;52.278;6.808;2023-04-25T11:00:00;8.80;;;2.50;;
68870;SDS011;55906;52.278;6.808;2023-04-25T11:02:33;5.15;;;2.45;;
68870;SDS011;55906;52.278;6.808;2023-04-25T11:05:04;6.05;;;2.40;;
68870;SDS011;55906;52.278;6.808;2023-04-25T11:07:33;5.97;;;2.35;;
68870;SDS011;55906;52.278;6.808;2023-04-25T11:10:03;6.33;;;1.93;;
68870;SDS011;55906;52.278;6.808;2023-04-25T11:12:31;4.47;;;1.83;;
68870;SDS011;55906;52.278;6.808;2023-04-25T11:14:58;7.85;;;2.90;;
68870;SDS011;55906;52.278;6.808;2023-04-25T11:17:26;5.50;;;2.53;;
68870;SDS011;55906;52.278;6.808;2023-04-25T11:19:55;6.13;;;2.20;;
68870;SDS011;55906;52.278;6.808;2023-04-25T11:22:22;5.47;;;2.43;;
68870;SDS011;55906;52.278;6.808;2023-04-25T11:24:49;4.97;;;2.25;;
68870;SDS011;55906;52.278;6.808;2023-04-25T11:27:16;6.68;;;2.78;;
68870;SDS011;55906;52.278;6.808;2023-04-25T11:29:43;5.20;;;2.53;;
68870;SDS011;55906;52.278;6.808;2023-04-25T11:32:10;4.93;;;2.80;;
68870;SDS011;55906;52.278;6.808;2023-04-25T11:34:36;4.73;;;2.57;;
68870;SDS011;55906;52.278;6.808;2023-04-25T11:37:04;5.60;;;2.42;;
68870;SDS011;55906;52.278;6.808;2023-04-25T11:39:31;5.53;;;2.65;;
68870;SDS011;55906;52.278;6.808;2023-04-25T11:41:58;4.97;;;2.53;;
68870;SDS011;55906;52.278;6.808;2023-04-25T11:44:26;6.68;;;2.95;;
68870;SDS011;55906;52.278;6.808;2023-04-25T11:46:52;5.50;;;2.60;;
68870;SDS011;55906;52.278;6.808;2023-04-25T11:49:19;5.70;;;2.30;;
68870;SDS011;55906;52.278;6.808;2023-04-25T11:51:47;5.82;;;2.55;;
68870;SDS011;55906;52.278;6.808;2023-04-25T11:54:16;5.75;;;2.33;;
68870;SDS011;55906;52.278;6.808;2023-04-25T11:56:42;5.90;;;2.38;;
68870;SDS011;55906;52.278;6.808;2023-04-25T11:59:10;5.83;;;2.43;;
68870;SDS011;55906;52.278;6.808;2023-04-25T12:01:37;9.73;;;2.75;;
68870;SDS011;55906;52.278;6.808;2023-04-25T12:04:11;8.18;;;3.28;;
68870;SDS011;55906;52.278;6.808;2023-04-25T12:06:38;4.95;;;2.42;;
68870;SDS011;55906;52.278;6.808;2023-04-25T12:09:07;6.15;;;2.80;;
68870;SDS011;55906;52.278;6.808;2023-04-25T12:11:41;4.47;;;2.17;;
68870;SDS011;55906;52.278;6.808;2023-04-25T12:14:08;4.97;;;2.25;;
68870;SDS011;55906;52.278;6.808;2023-04-25T12:16:42;5.45;;;2.72;;
68870;SDS011;55906;52.278;6.808;2023-04-25T12:19:09;5.35;;;2.40;;
68870;SDS011;55906;52.278;6.808;2023-04-25T12:21:36;4.65;;;2.63;;
68870;SDS011;55906;52.278;6.808;2023-04-25T12:24:12;5.77;;;2.77;;
68870;SDS011;55906;52.278;6.808;2023-04-25T12:26:47;5.00;;;2.28;;
68870;SDS011;55906;52.278;6.808;2023-04-25T12:29:15;6.85;;;2.42;;
68870;SDS011;55906;52.278;6.808;2023-04-25T12:31:43;4.40;;;2.50;;
68870;SDS011;55906;52.278;6.808;2023-04-25T12:34:09;4.93;;;2.08;;
68870;SDS011;55906;52.278;6.808;2023-04-25T12:36:36;4.97;;;2.47;;
68870;SDS011;55906;52.278;6.808;2023-04-25T12:39:03;6.80;;;2.60;;
68870;SDS011;55906;52.278;6.808;2023-04-25T12:41:30;6.13;;;2.53;;
68870;SDS011;55906;52.278;6.808;2023-04-25T12:43:58;4.55;;;2.10;;
68870;SDS011;55906;52.278;6.808;2023-04-25T12:46:24;5.85;;;2.80;;
68870;SDS011;55906;52.278;6.808;2023-04-25T12:48:51;6.77;;;2.40;;
68870;SDS011;55906;52.278;6.808;2023-04-25T12:51:18;5.88;;;2.30;;
68870;SDS011;55906;52.278;6.808;2023-04-25T12:53:44;5.72;;;2.42;;
68870;SDS011;55906;52.278;6.808;2023-04-25T12:56:11;8.43;;;2.58;;
68870;SDS011;55906;52.278;6.808;2023-04-25T12:58:38;6.70;;;2.95;;
68870;SDS011;55906;52.278;6.808;2023-04-25T13:01:06;5.40;;;2.50;;
68870;SDS011;55906;52.278;6.808;2023-04-25T13:03:33;6.25;;;2.63;;
68870;SDS011;55906;52.278;6.808;2023-04-25T13:05:59;8.02;;;2.50;;
68870;SDS011;55906;52.278;6.808;2023-04-25T13:08:26;8.70;;;2.83;;
68870;SDS011;55906;52.278;6.808;2023-04-25T13:10:53;7.90;;;3.22;;
68870;SDS011;55906;52.278;6.808;2023-04-25T13:13:19;6.00;;;2.47;;
68870;SDS011;55906;52.278;6.808;2023-04-25T13:15:46;5.55;;;2.15;;
68870;SDS011;55906;52.278;6.808;2023-04-25T13:18:14;4.40;;;2.30;;
68870;SDS011;55906;52.278;6.808;2023-04-25T13:20:41;4.68;;;1.92;;
68870;SDS011;55906;52.278;6.808;2023-04-25T13:23:07;5.13;;;2.10;;
68870;SDS011;55906;52.278;6.808;2023-04-25T13:25:34;4.83;;;2.17;;
68870;SDS011;55906;52.278;6.808;2023-04-25T13:28:01;4.97;;;1.98;;
68870;SDS011;55906;52.278;6.808;2023-04-25T13:30:28;4.10;;;2.05;;
68870;SDS011;55906;52.278;6.808;2023-04-25T13:32:54;6.00;;;2.30;;
68870;SDS011;55906;52.278;6.808;2023-04-25T13:35:23;5.25;;;2.42;;
68870;SDS011;55906;52.278;6.808;2023-04-25T13:37:50;3.80;;;2.17;;
68870;SDS011;55906;52.278;6.808;2023-04-25T13:40:17;7.15;;;2.28;;
68870;SDS011;55906;52.278;6.808;2023-04-25T13:42:43;5.25;;;2.40;;
68870;SDS011;55906;52.278;6.808;2023-04-25T13:45:10;7.32;;;2.67;;
68870;SDS011;55906;52.278;6.808;2023-04-25T13:47:37;6.25;;;2.28;;
68870;SDS011;55906;52.278;6.808;2023-04-25T13:50:04;6.80;;;2.30;;
68870;SDS011;55906;52.278;6.808;2023-04-25T13:52:33;6.60;;;1.95;;
68870;SDS011;55906;52.278;6.808;2023-04-25T13:55:00;4.72;;;2.38;;
68870;SDS011;55906;52.278;6.808;2023-04-25T13:57:28;6.22;;;2.47;;
68870;SDS011;55906;52.278;6.808;2023-04-25T13:59:55;7.78;;;2.28;;
68870;SDS011;55906;52.278;6.808;2023-04-25T14:02:22;6.50;;;2.17;;
68870;SDS011;55906;52.278;6.808;2023-04-25T14:04:48;5.88;;;1.80;;
68870;SDS011;55906;52.278;6.808;2023-04-25T14:07:15;7.57;;;2.20;;
68870;SDS011;55906;52.278;6.808;2023-04-25T14:09:44;7.43;;;2.20;;
68870;SDS011;55906;52.278;6.808;2023-04-25T14:12:11;6.18;;;1.83;;
68870;SDS011;55906;52.278;6.808;2023-04-25T14:14:37;5.67;;;1.83;;
68870;SDS011;55906;52.278;6.808;2023-04-25T14:17:04;3.97;;;1.70;;
68870;SDS011;55906;52.278;6.808;2023-04-25T14:19:31;3.97;;;1.90;;
68870;SDS011;55906;52.278;6.808;2023-04-25T14:21:57;4.82;;;1.80;;
68870;SDS011;55906;52.278;6.808;2023-04-25T14:24:24;4.57;;;1.60;;
68870;SDS011;55906;52.278;6.808;2023-04-25T14:26:52;4.47;;;1.70;;
68870;SDS011;55906;52.278;6.808;2023-04-25T14:29:19;5.20;;;1.90;;
68870;SDS011;55906;52.278;6.808;2023-04-25T14:31:46;5.22;;;1.90;;
68870;SDS011;55906;52.278;6.808;2023-04-25T14:34:13;5.55;;;1.67;;
68870;SDS011;55906;52.278;6.808;2023-04-25T14:36:40;5.15;;;1.67;;
68870;SDS011;55906;52.278;6.808;2023-04-25T14:39:07;5.90;;;1.70;;
68870;SDS011;55906;52.278;6.808;2023-04-25T14:41:33;6.38;;;1.60;;
68870;SDS011;55906;52.278;6.808;2023-04-25T14:44:01;5.32;;;1.52;;